createdAt,value
2019-04-16T00:01:50.659Z,9.24
2019-04-16T00:04:00.058Z,9.21
2019-04-16T00:06:13.582Z,9.10
2019-04-16T00:08:27.660Z,9.05
2019-04-16T00:10:40.486Z,9.03
2019-04-16T00:13:03.349Z,8.95
2019-04-16T00:15:07.316Z,8.87
2019-04-16T00:17:13.160Z,8.79
2019-04-16T00:19:16.609Z,8.74
2019-04-16T00:21:48.718Z,8.67
2019-04-16T00:24:11.620Z,8.64
2019-04-16T00:26:15.367Z,8.62
2019-04-16T00:28:19.249Z,8.57
2019-04-16T00:30:25.994Z,8.52
2019-04-16T00:32:30.393Z,8.49
2019-04-16T00:34:35.193Z,8.46
2019-04-16T00:36:39.063Z,8.41
2019-04-16T00:38:43.844Z,8.29
2019-04-16T00:40:47.697Z,8.23
2019-04-16T00:42:51.443Z,8.18
2019-04-16T00:44:55.565Z,8.13
2019-04-16T00:46:59.453Z,8.09
2019-04-16T00:49:03.362Z,8.07
2019-04-16T00:51:07.308Z,8.00
2019-04-16T00:53:12.093Z,7.95
2019-04-16T00:55:16.005Z,7.90
2019-04-16T00:57:19.781Z,7.85
2019-04-16T00:59:24.181Z,7.81
2019-04-16T01:01:29.660Z,7.76
2019-04-16T01:03:33.516Z,7.75
2019-04-16T01:05:37.264Z,7.69
2019-04-16T01:07:41.121Z,7.62
2019-04-16T01:09:44.858Z,7.60
2019-04-16T01:11:49.648Z,7.56
2019-04-16T01:13:55.689Z,7.55
2019-04-16T01:16:02.460Z,7.53
2019-04-16T01:18:07.818Z,7.50
2019-04-16T01:20:12.643Z,7.40
2019-04-16T01:22:16.870Z,7.32
2019-04-16T01:24:21.188Z,7.24
2019-04-16T01:26:26.818Z,7.15
2019-04-16T01:28:32.739Z,7.04
2019-04-16T01:30:55.525Z,6.96
2019-04-16T01:33:07.126Z,6.92
2019-04-16T01:35:29.693Z,6.87
2019-04-16T01:37:56.730Z,6.80
2019-04-16T01:40:01.381Z,6.74
2019-04-16T01:42:05.221Z,6.72
2019-04-16T01:44:08.946Z,6.69
2019-04-16T01:46:12.776Z,6.69
2019-04-16T01:48:16.664Z,6.67
2019-04-16T01:50:20.576Z,6.63
2019-04-16T01:52:24.468Z,6.61
2019-04-16T01:54:28.378Z,6.57
2019-04-16T01:56:32.290Z,6.58
2019-04-16T01:58:36.165Z,6.55
2019-04-16T02:00:40.109Z,6.53
2019-04-16T02:02:46.359Z,6.49
2019-04-16T02:04:52.113Z,6.45
2019-04-16T02:06:57.255Z,6.43
2019-04-16T02:09:02.766Z,6.42
2019-04-16T02:11:10.647Z,6.41
2019-04-16T02:13:15.026Z,6.40
2019-04-16T02:15:21.613Z,6.42
2019-04-16T02:17:27.027Z,6.39
2019-04-16T02:19:32.822Z,6.37
2019-04-16T02:21:35.946Z,6.36
2019-04-16T02:23:39.750Z,6.35
2019-04-16T02:25:43.579Z,6.33
2019-04-16T02:27:47.374Z,6.29
2019-04-16T02:29:53.603Z,6.26
2019-04-16T02:31:56.639Z,6.25
2019-04-16T02:34:00.789Z,6.23
2019-04-16T02:36:04.748Z,6.22
2019-04-16T02:38:12.231Z,6.18
2019-04-16T02:40:18.485Z,6.16
2019-04-16T02:42:20.762Z,6.12
2019-04-16T02:44:24.640Z,6.10
2019-04-16T02:46:32.417Z,6.08
2019-04-16T02:48:34.080Z,6.06
2019-04-16T02:50:42.321Z,6.07
2019-04-16T02:53:00.173Z,6.01
2019-04-16T02:55:21.763Z,6.00
2019-04-16T02:57:46.786Z,6.01
2019-04-16T02:59:50.602Z,5.98
2019-04-16T03:02:17.396Z,5.87
2019-04-16T03:04:26.710Z,5.78
2019-04-16T03:06:31.973Z,5.74
2019-04-16T03:08:36.160Z,5.72
2019-04-16T03:10:41.777Z,5.69
2019-04-16T03:12:46.212Z,5.65
2019-04-16T03:14:50.960Z,5.64
2019-04-16T03:17:10.680Z,5.60
2019-04-16T03:19:20.039Z,5.57
2019-04-16T03:21:24.577Z,5.53
2019-04-16T03:23:27.900Z,5.48
2019-04-16T03:25:31.685Z,5.42
2019-04-16T03:27:35.504Z,5.40
2019-04-16T03:29:39.374Z,5.38
2019-04-16T03:31:43.131Z,5.37
2019-04-16T03:33:50.201Z,5.33
2019-04-16T03:35:52.442Z,5.30
2019-04-16T03:37:56.291Z,5.25
2019-04-16T03:40:00.046Z,5.30
2019-04-16T03:42:03.874Z,5.30
2019-04-16T03:44:07.866Z,5.29
2019-04-16T03:46:12.740Z,5.27
2019-04-16T03:48:17.233Z,5.25
2019-04-16T03:50:21.047Z,5.27
2019-04-16T03:52:24.815Z,5.31
2019-04-16T03:54:28.528Z,5.35
2019-04-16T03:56:32.401Z,5.35
2019-04-16T03:58:38.387Z,5.31
2019-04-16T04:00:44.193Z,5.30
2019-04-16T04:02:48.040Z,5.27
2019-04-16T04:04:51.833Z,5.17
2019-04-16T04:06:55.665Z,5.13
2019-04-16T04:09:00.486Z,5.10
2019-04-16T04:11:09.180Z,5.09
2019-04-16T04:13:10.032Z,5.07
2019-04-16T04:15:14.065Z,5.01
2019-04-16T04:17:17.841Z,4.96
2019-04-16T04:19:21.633Z,4.92
2019-04-16T04:21:25.504Z,4.92
2019-04-16T04:23:29.427Z,4.90
2019-04-16T04:25:35.971Z,4.93
2019-04-16T04:27:38.888Z,4.96
2019-04-16T04:29:46.072Z,4.96
2019-04-16T04:31:48.263Z,4.90
2019-04-16T04:33:52.055Z,4.79
2019-04-16T04:35:55.858Z,4.80
2019-04-16T04:38:00.709Z,4.80
2019-04-16T04:40:05.675Z,4.79
2019-04-16T04:42:09.417Z,4.77
2019-04-16T04:44:13.206Z,4.70
2019-04-16T04:46:17.008Z,4.69
2019-04-16T04:48:24.141Z,4.70
2019-04-16T04:50:26.269Z,4.69
2019-04-16T04:52:30.091Z,4.71
2019-04-16T04:54:33.815Z,4.70
2019-04-16T04:56:37.547Z,4.71
2019-04-16T04:58:41.410Z,4.73
2019-04-16T05:00:45.317Z,4.79
2019-04-16T05:02:49.060Z,4.83
2019-04-16T05:05:04.845Z,4.82
2019-04-16T05:07:08.993Z,4.83
2019-04-16T05:09:12.785Z,4.88
2019-04-16T05:11:17.095Z,4.90
2019-04-16T05:13:23.955Z,4.90
2019-04-16T05:15:29.432Z,4.88
2019-04-16T05:17:31.982Z,4.86
2019-04-16T05:19:35.790Z,4.85
2019-04-16T05:21:39.576Z,4.87
2019-04-16T05:23:43.399Z,4.92
2019-04-16T05:25:47.189Z,4.92
2019-04-16T05:27:50.997Z,5.06
2019-04-16T05:29:54.800Z,5.17
2019-04-16T05:31:58.592Z,5.25
2019-04-16T05:34:02.563Z,5.28
2019-04-16T05:36:06.305Z,5.34
2019-04-16T05:38:10.097Z,5.42
2019-04-16T05:40:14.075Z,5.54
2019-04-16T05:42:17.887Z,5.62
2019-04-16T05:44:22.850Z,5.71
2019-04-16T05:46:26.663Z,5.83
2019-04-16T05:48:30.489Z,5.96
2019-04-16T05:50:34.260Z,6.02
2019-04-16T05:52:38.135Z,6.08
2019-04-16T05:54:51.627Z,6.12
2019-04-16T05:56:56.941Z,6.14
2019-04-16T05:59:02.670Z,6.19
2019-04-16T06:01:31.536Z,6.27
2019-04-16T06:03:35.258Z,6.41
2019-04-16T06:05:39.181Z,6.58
2019-04-16T06:07:42.982Z,6.70
2019-04-16T06:09:46.789Z,6.85
2019-04-16T06:11:50.591Z,7.03
2019-04-16T06:14:00.467Z,7.21
2019-04-16T06:16:25.465Z,7.36
2019-04-16T06:18:52.781Z,7.51
2019-04-16T06:21:25.037Z,7.66
2019-04-16T06:23:44.662Z,7.83
2019-04-16T06:26:14.250Z,8.02
2019-04-16T06:28:35.841Z,8.20
2019-04-16T06:31:12.122Z,8.33
2019-04-16T06:33:19.707Z,8.53
2019-04-16T06:35:43.874Z,8.77
2019-04-16T06:37:58.081Z,8.96
2019-04-16T06:40:09.100Z,9.15
2019-04-16T06:42:21.156Z,9.35
2019-04-16T06:44:24.321Z,9.57
2019-04-16T06:46:47.143Z,9.80
2019-04-16T06:49:08.683Z,10.01
2019-04-16T06:51:43.640Z,10.24
2019-04-16T06:54:11.220Z,10.49
2019-04-16T06:56:32.528Z,10.75
2019-04-16T06:59:32.525Z,11.04
2019-04-16T07:01:16.565Z,11.24
2019-04-16T07:03:36.719Z,11.46
2019-04-16T07:05:57.940Z,11.74
2019-04-16T07:08:20.057Z,11.96
2019-04-16T07:10:28.935Z,12.15
2019-04-16T07:12:37.953Z,12.32
2019-04-16T07:14:39.472Z,12.47
2019-04-16T07:16:43.550Z,12.58
2019-04-16T07:18:47.377Z,12.76
2019-04-16T07:20:51.230Z,12.96
2019-04-16T07:22:56.008Z,13.19
2019-04-16T07:25:03.864Z,13.38
2019-04-16T07:27:05.543Z,13.50
2019-04-16T07:29:16.785Z,13.65
2019-04-16T07:31:40.779Z,13.74
2019-04-16T07:33:57.995Z,13.82
2019-04-16T07:36:27.157Z,13.90
2019-04-16T07:38:52.295Z,14.04
2019-04-16T07:41:16.806Z,14.19
2019-04-16T07:43:44.458Z,14.40
2019-04-16T07:46:00.728Z,14.57
2019-04-16T07:48:15.064Z,14.68
2019-04-16T07:50:40.643Z,14.80
2019-04-16T07:53:06.181Z,14.98
2019-04-16T07:55:40.953Z,15.19
2019-04-16T07:57:46.752Z,15.38
2019-04-16T07:59:50.611Z,15.57
2019-04-16T08:01:54.321Z,15.69
2019-04-16T08:04:01.365Z,15.89
2019-04-16T08:06:03.685Z,16.09
2019-04-16T08:08:08.575Z,16.20
2019-04-16T08:10:13.059Z,16.33
2019-04-16T08:12:29.811Z,16.50
2019-04-16T08:14:23.389Z,16.55
2019-04-16T08:16:27.288Z,16.50
2019-04-16T08:18:31.182Z,16.63
2019-04-16T08:20:37.027Z,16.85
2019-04-16T08:22:40.917Z,17.31
2019-04-16T08:24:48.049Z,18.01
2019-04-16T08:26:51.845Z,18.66
2019-04-16T08:28:56.661Z,19.35
2019-04-16T08:31:00.936Z,19.49
2019-04-16T08:33:04.761Z,18.94
2019-04-16T08:35:08.757Z,18.40
2019-04-16T08:37:13.555Z,18.03
2019-04-16T08:39:17.412Z,17.75
2019-04-16T08:41:21.709Z,17.54
2019-04-16T08:43:26.653Z,17.34
2019-04-16T08:45:31.276Z,17.33
2019-04-16T08:47:35.183Z,17.46
2019-04-16T08:49:38.995Z,17.56
2019-04-16T08:51:42.896Z,17.63
2019-04-16T08:53:47.632Z,17.62
2019-04-16T08:55:52.429Z,17.66
2019-04-16T08:57:56.158Z,17.75
2019-04-16T08:59:59.972Z,17.80
2019-04-16T09:02:04.811Z,17.78
2019-04-16T09:04:09.696Z,17.89
2019-04-16T09:06:14.288Z,18.00
2019-04-16T09:08:38.077Z,18.12
2019-04-16T09:10:44.526Z,18.21
2019-04-16T09:13:02.019Z,18.19
2019-04-16T09:14:55.990Z,18.12
2019-04-16T09:17:11.240Z,18.14
2019-04-16T09:19:16.708Z,18.25
2019-04-16T09:21:21.595Z,18.30
2019-04-16T09:23:26.663Z,18.33
2019-04-16T09:26:13.371Z,18.37
2019-04-16T09:28:32.158Z,18.54
2019-04-16T09:30:57.798Z,18.48
2019-04-16T09:33:23.345Z,18.53
2019-04-16T09:35:52.198Z,18.60
2019-04-16T09:38:20.788Z,18.76
2019-04-16T09:40:42.418Z,18.80
2019-04-16T09:42:46.241Z,18.77
2019-04-16T09:44:51.125Z,18.83
2019-04-16T09:46:59.459Z,18.93
2019-04-16T09:49:00.482Z,18.84
2019-04-16T09:51:04.411Z,18.80
2019-04-16T09:53:08.329Z,18.88
2019-04-16T09:55:15.167Z,18.88
2019-04-16T09:57:17.929Z,18.81
2019-04-16T09:59:27.744Z,18.84
2019-04-16T10:01:43.806Z,18.99
2019-04-16T10:03:49.721Z,19.08
2019-04-16T10:05:53.546Z,19.07
2019-04-16T10:07:57.380Z,19.12
2019-04-16T10:10:01.209Z,19.26
2019-04-16T10:12:07.710Z,19.40
2019-04-16T10:14:10.689Z,19.47
2019-04-16T10:16:15.894Z,19.51
2019-04-16T10:18:19.760Z,19.60
2019-04-16T10:20:23.579Z,19.59
2019-04-16T10:22:27.412Z,19.48
2019-04-16T10:25:00.527Z,19.40
2019-04-16T10:27:04.611Z,19.40
2019-04-16T10:29:12.605Z,19.50
2019-04-16T10:31:18.763Z,19.56
2019-04-16T10:33:22.697Z,19.84
2019-04-16T10:35:26.798Z,20.05
2019-04-16T10:37:30.559Z,20.40
2019-04-16T10:39:56.427Z,20.40
2019-04-16T10:42:19.172Z,20.49
2019-04-16T10:44:47.845Z,20.49
2019-04-16T10:47:12.507Z,20.43
2019-04-16T10:49:24.749Z,20.30
2019-04-16T10:51:35.971Z,20.26
2019-04-16T10:53:46.848Z,20.16
2019-04-16T10:56:13.658Z,20.16
2019-04-16T10:58:51.582Z,20.15
2019-04-16T11:01:03.208Z,20.27
2019-04-16T11:03:28.549Z,20.50
2019-04-16T11:05:41.943Z,20.70
2019-04-16T11:07:46.582Z,20.85
2019-04-16T11:09:50.433Z,20.85
2019-04-16T11:11:54.231Z,20.88
2019-04-16T11:14:00.683Z,20.99
2019-04-16T11:16:11.256Z,20.90
2019-04-16T11:18:15.076Z,20.94
2019-04-16T11:20:18.961Z,20.94
2019-04-16T11:22:22.805Z,20.90
2019-04-16T11:24:26.744Z,20.90
2019-04-16T11:26:30.498Z,20.88
2019-04-16T11:28:34.378Z,20.95
2019-04-16T11:30:43.922Z,21.02
2019-04-16T11:32:47.823Z,21.00
2019-04-16T11:34:51.639Z,21.06
2019-04-16T11:36:58.271Z,21.13
2019-04-16T11:39:01.902Z,21.31
2019-04-16T11:41:06.687Z,21.52
2019-04-16T11:43:10.523Z,21.51
2019-04-16T11:45:15.371Z,21.63
2019-04-16T11:47:19.237Z,21.81
2019-04-16T11:49:24.055Z,21.81
2019-04-16T11:51:27.814Z,21.94
2019-04-16T11:53:31.671Z,22.20
2019-04-16T11:55:35.554Z,22.24
2019-04-16T11:57:39.464Z,22.09
2019-04-16T11:59:43.210Z,22.08
2019-04-16T12:02:00.679Z,22.18
2019-04-16T12:04:27.579Z,22.38
2019-04-16T12:06:39.945Z,22.72
2019-04-16T12:09:01.767Z,22.98
2019-04-16T12:11:20.531Z,23.27
2019-04-16T12:13:52.520Z,23.39
2019-04-16T12:16:07.011Z,23.57
2019-04-16T12:18:17.328Z,23.81
2019-04-16T12:20:38.982Z,23.95
2019-04-16T12:22:50.591Z,24.06
2019-04-16T12:25:18.673Z,24.25
2019-04-16T12:27:56.411Z,24.50
2019-04-16T12:30:17.853Z,24.70
2019-04-16T12:32:29.310Z,25.13
2019-04-16T12:34:43.155Z,25.41
2019-04-16T12:37:08.752Z,25.95
2019-04-16T12:39:40.549Z,26.22
2019-04-16T12:42:15.473Z,26.37
2019-04-16T12:44:44.173Z,26.45
2019-04-16T12:46:53.713Z,26.49
2019-04-16T12:49:17.768Z,26.46
2019-04-16T12:51:40.993Z,26.69
2019-04-16T12:53:54.690Z,27.01
2019-04-16T12:56:12.810Z,27.48
2019-04-16T12:58:28.705Z,27.86
2019-04-16T13:00:51.607Z,28.24
2019-04-16T13:03:32.716Z,28.69
2019-04-16T13:05:50.956Z,28.65
2019-04-16T13:08:14.301Z,28.43
2019-04-16T13:10:33.867Z,28.83
2019-04-16T13:13:05.782Z,29.66
2019-04-16T13:15:22.820Z,30.28
2019-04-16T13:17:54.949Z,30.38
2019-04-16T13:20:10.496Z,30.12
2019-04-16T13:22:15.536Z,30.02
2019-04-16T13:24:32.455Z,30.53
2019-04-16T13:26:39.014Z,30.86
2019-04-16T13:28:42.811Z,30.35
2019-04-16T13:30:46.613Z,29.99
2019-04-16T13:32:50.922Z,30.06
2019-04-16T13:34:57.908Z,29.80
2019-04-16T13:37:01.013Z,29.71
2019-04-16T13:39:20.271Z,29.65
2019-04-16T13:41:27.040Z,30.04
2019-04-16T13:43:36.721Z,29.93
2019-04-16T13:45:41.060Z,30.19
2019-04-16T13:47:54.771Z,30.40
2019-04-16T13:50:17.009Z,30.60
2019-04-16T13:52:25.158Z,30.75
2019-04-16T13:54:45.350Z,30.51
2019-04-16T13:56:54.722Z,30.47
2019-04-16T13:59:18.611Z,30.60
2019-04-16T14:01:25.341Z,30.19
2019-04-16T14:03:29.135Z,29.07
2019-04-16T14:05:37.434Z,28.21
2019-04-16T14:07:39.681Z,27.50
2019-04-16T14:09:44.540Z,27.05
2019-04-16T14:11:51.226Z,26.82
2019-04-16T14:13:53.914Z,26.57
2019-04-16T14:15:57.710Z,25.98
2019-04-16T14:18:01.512Z,25.57
2019-04-16T14:20:08.659Z,25.07
2019-04-16T14:22:13.514Z,24.64
2019-04-16T14:24:17.341Z,24.40
2019-04-16T14:26:21.283Z,24.25
2019-04-16T14:28:26.082Z,24.11
2019-04-16T14:30:35.196Z,23.86
2019-04-16T14:32:38.995Z,23.63
2019-04-16T14:35:13.946Z,23.53
2019-04-16T14:37:17.936Z,23.36
2019-04-16T14:39:29.633Z,23.30
2019-04-16T14:41:33.387Z,23.31
2019-04-16T14:43:39.628Z,23.29
2019-04-16T14:45:57.639Z,23.23
2019-04-16T14:47:51.960Z,23.22
2019-04-16T14:49:55.857Z,23.25
2019-04-16T14:52:02.227Z,23.32
2019-04-16T14:54:18.356Z,23.29
2019-04-16T14:56:35.783Z,23.17
2019-04-16T14:58:59.561Z,23.12
2019-04-16T15:01:20.930Z,22.99
2019-04-16T15:03:43.474Z,22.74
2019-04-16T15:05:58.173Z,22.54
2019-04-16T15:08:20.007Z,22.49
2019-04-16T15:11:02.234Z,22.50
2019-04-16T15:13:31.514Z,22.50
2019-04-16T15:15:43.062Z,22.36
2019-04-16T15:18:05.786Z,22.34
2019-04-16T15:20:41.029Z,22.27
2019-04-16T15:22:54.079Z,22.17
2019-04-16T15:25:06.184Z,22.17
2019-04-16T15:27:28.171Z,22.06
2019-04-16T15:30:04.336Z,22.05
2019-04-16T15:32:27.083Z,22.05
2019-04-16T15:34:41.954Z,22.10
2019-04-16T15:37:00.058Z,22.08
2019-04-16T15:39:18.127Z,21.99
2019-04-16T15:41:26.609Z,21.92
2019-04-16T15:43:41.260Z,21.92
2019-04-16T15:46:07.996Z,21.82
2019-04-16T15:48:39.688Z,21.74
2019-04-16T15:51:21.683Z,21.68
2019-04-16T15:53:44.429Z,21.66
2019-04-16T15:55:51.719Z,21.55
2019-04-16T15:58:07.773Z,21.59
2019-04-16T16:00:30.739Z,21.58
2019-04-16T16:03:06.557Z,21.51
2019-04-16T16:05:19.835Z,21.45
2019-04-16T16:07:27.413Z,21.41
2019-04-16T16:09:50.199Z,21.37
2019-04-16T16:12:04.994Z,21.41
2019-04-16T16:14:08.795Z,21.36
2019-04-16T16:16:17.683Z,21.28
2019-04-16T16:18:18.017Z,21.25
2019-04-16T16:20:21.971Z,21.15
2019-04-16T16:22:26.766Z,21.20
2019-04-16T16:24:30.553Z,21.20
2019-04-16T16:26:34.375Z,21.21
2019-04-16T16:28:38.141Z,21.21
2019-04-16T16:30:42.026Z,21.22
2019-04-16T16:32:45.871Z,21.21
2019-04-16T16:34:50.678Z,21.21
2019-04-16T16:36:54.603Z,21.20
2019-04-16T16:38:58.488Z,21.20
2019-04-16T16:41:03.064Z,21.18
2019-04-16T16:43:08.722Z,21.21
2019-04-16T16:45:12.716Z,21.18
2019-04-16T16:47:35.324Z,21.11
2019-04-16T16:49:39.145Z,21.04
2019-04-16T16:52:00.201Z,21.00
2019-04-16T16:54:10.031Z,20.96
2019-04-16T16:56:21.158Z,20.82
2019-04-16T16:58:43.018Z,20.75
2019-04-16T17:00:56.346Z,20.70
2019-04-16T17:03:17.655Z,20.67
2019-04-16T17:05:30.706Z,20.56
2019-04-16T17:07:34.543Z,20.49
2019-04-16T17:09:38.431Z,20.41
2019-04-16T17:11:43.114Z,20.36
2019-04-16T17:13:47.696Z,20.24
2019-04-16T17:15:51.781Z,20.13
2019-04-16T17:17:55.695Z,19.98
2019-04-16T17:19:59.968Z,19.88
2019-04-16T17:22:04.016Z,19.85
2019-04-16T17:24:13.749Z,19.83
2019-04-16T17:26:17.655Z,19.80
2019-04-16T17:28:21.497Z,19.75
2019-04-16T17:30:25.417Z,19.69
2019-04-16T17:32:29.308Z,19.63
2019-04-16T17:34:33.113Z,19.58
2019-04-16T17:36:37.013Z,19.48
2019-04-16T17:38:40.793Z,19.41
2019-04-16T17:41:00.200Z,19.34
2019-04-16T17:43:13.863Z,19.27
2019-04-16T17:45:36.984Z,19.23
2019-04-16T17:48:03.182Z,19.20
2019-04-16T17:50:16.379Z,19.13
2019-04-16T17:52:29.859Z,19.07
2019-04-16T17:54:41.478Z,18.99
2019-04-16T17:56:55.520Z,18.95
2019-04-16T17:59:02.850Z,18.91
2019-04-16T18:01:28.091Z,18.86
2019-04-16T18:03:38.890Z,18.83
2019-04-16T18:05:50.723Z,18.77
2019-04-16T18:08:20.965Z,18.69
2019-04-16T18:10:34.600Z,18.64
2019-04-16T18:13:00.451Z,18.58
2019-04-16T18:15:11.175Z,18.56
2019-04-16T18:17:27.626Z,18.48
2019-04-16T18:19:55.220Z,18.35
2019-04-16T18:22:19.569Z,18.28
2019-04-16T18:24:44.507Z,18.22
2019-04-16T18:27:05.859Z,18.11
2019-04-16T18:29:19.956Z,17.96
2019-04-16T18:31:42.852Z,17.92
2019-04-16T18:33:54.974Z,17.90
2019-04-16T18:36:29.877Z,17.90
2019-04-16T18:38:49.553Z,17.83
2019-04-16T18:41:18.519Z,17.65
2019-04-16T18:43:35.184Z,17.59
2019-04-16T18:46:01.052Z,17.48
2019-04-16T18:48:13.742Z,17.43
2019-04-16T18:50:23.563Z,17.43
2019-04-16T18:52:26.161Z,17.38
2019-04-16T18:54:30.066Z,17.30
2019-04-16T18:56:33.941Z,17.24
2019-04-16T18:58:41.467Z,17.13
2019-04-16T19:00:45.872Z,17.08
2019-04-16T19:02:49.687Z,17.09
2019-04-16T19:04:53.557Z,17.07
2019-04-16T19:06:57.274Z,17.04
2019-04-16T19:09:01.191Z,17.00
2019-04-16T19:11:05.195Z,16.91
2019-04-16T19:13:11.413Z,16.84
2019-04-16T19:15:14.636Z,16.84
2019-04-16T19:17:18.447Z,16.83
2019-04-16T19:19:22.705Z,16.82
2019-04-16T19:21:27.676Z,16.84
2019-04-16T19:23:31.486Z,16.80
2019-04-16T19:25:35.323Z,16.74
2019-04-16T19:27:39.111Z,16.70
2019-04-16T19:29:45.512Z,16.57
2019-04-16T19:31:48.534Z,16.47
2019-04-16T19:33:52.643Z,16.47
2019-04-16T19:35:57.428Z,16.49
2019-04-16T19:38:02.387Z,16.49
2019-04-16T19:40:06.986Z,16.48
2019-04-16T19:42:11.326Z,16.44
2019-04-16T19:44:15.275Z,16.43
2019-04-16T19:46:20.139Z,16.47
2019-04-16T19:48:35.461Z,16.53
2019-04-16T19:50:35.848Z,16.54
2019-04-16T19:52:35.016Z,16.54
2019-04-16T19:54:38.818Z,16.54
2019-04-16T19:56:42.708Z,16.50
2019-04-16T19:58:47.257Z,16.49
2019-04-16T20:00:53.959Z,16.48
2019-04-16T20:02:57.491Z,16.44
2019-04-16T20:05:01.252Z,16.41
2019-04-16T20:07:05.233Z,16.40
2019-04-16T20:09:09.275Z,16.33
2019-04-16T20:11:13.001Z,16.18
2019-04-16T20:13:16.826Z,16.01
2019-04-16T20:15:20.722Z,15.93
2019-04-16T20:17:24.531Z,15.97
2019-04-16T20:19:28.445Z,15.89
2019-04-16T20:21:32.250Z,15.83
2019-04-16T20:23:36.012Z,15.79
2019-04-16T20:25:39.834Z,15.75
2019-04-16T20:27:43.584Z,15.76
2019-04-16T20:29:47.348Z,15.73
2019-04-16T20:31:51.191Z,15.72
2019-04-16T20:33:54.945Z,15.71
2019-04-16T20:35:58.763Z,15.68
2019-04-16T20:38:02.645Z,15.63
2019-04-16T20:40:06.905Z,15.59
2019-04-16T20:42:10.643Z,15.56
2019-04-16T20:44:14.483Z,15.50
2019-04-16T20:46:18.287Z,15.46
2019-04-16T20:48:22.090Z,15.41
2019-04-16T20:50:25.915Z,15.41
2019-04-16T20:52:30.855Z,15.39
2019-04-16T20:54:35.681Z,15.36
2019-04-16T20:56:40.657Z,15.34
2019-04-16T20:58:45.524Z,15.29
2019-04-16T21:00:52.147Z,15.21
2019-04-16T21:02:56.062Z,15.20
2019-04-16T21:05:02.584Z,15.17
2019-04-16T21:07:05.392Z,15.16
2019-04-16T21:09:09.251Z,15.14
2019-04-16T21:11:14.147Z,15.13
2019-04-16T21:13:18.048Z,15.10
2019-04-16T21:15:23.724Z,15.08
2019-04-16T21:17:27.618Z,15.04
2019-04-16T21:19:47.984Z,14.99
2019-04-16T21:21:56.505Z,14.99
2019-04-16T21:23:59.520Z,15.00
2019-04-16T21:26:03.387Z,14.96
2019-04-16T21:28:14.702Z,14.92
2019-04-16T21:30:18.848Z,14.89
2019-04-16T21:32:40.432Z,14.81
2019-04-16T21:34:50.061Z,14.77
2019-04-16T21:37:10.565Z,14.74
2019-04-16T21:39:24.077Z,14.76
2019-04-16T21:41:28.759Z,14.71
2019-04-16T21:43:35.742Z,14.69
2019-04-16T21:45:39.067Z,14.65
2019-04-16T21:47:44.819Z,14.63
2019-04-16T21:49:49.559Z,14.66
2019-04-16T21:52:08.257Z,14.66
2019-04-16T21:54:11.991Z,14.64
2019-04-16T21:56:15.796Z,14.60
2019-04-16T21:58:19.635Z,14.54
2019-04-16T22:00:41.350Z,14.48
2019-04-16T22:02:46.573Z,14.46
2019-04-16T22:04:50.477Z,14.47
2019-04-16T22:06:54.389Z,14.50
2019-04-16T22:08:59.079Z,14.53
2019-04-16T22:11:03.971Z,14.55
2019-04-16T22:13:07.684Z,14.54
2019-04-16T22:15:11.779Z,14.54
2019-04-16T22:17:16.638Z,14.55
2019-04-16T22:19:20.427Z,14.56
2019-04-16T22:21:24.273Z,14.57
2019-04-16T22:23:29.119Z,14.56
2019-04-16T22:25:32.970Z,14.53
2019-04-16T22:27:39.503Z,14.48
2019-04-16T22:29:47.232Z,14.47
2019-04-16T22:31:48.816Z,14.47
2019-04-16T22:33:52.618Z,14.48
2019-04-16T22:35:56.414Z,14.48
2019-04-16T22:38:00.237Z,14.44
2019-04-16T22:40:38.454Z,14.43
2019-04-16T22:42:48.367Z,14.35
2019-04-16T22:45:11.002Z,14.31
2019-04-16T22:47:18.333Z,14.28
2019-04-16T22:49:23.182Z,14.29
2019-04-16T22:51:27.392Z,14.27
2019-04-16T22:53:32.270Z,14.29
2019-04-16T22:55:36.297Z,14.27
2019-04-16T22:57:40.102Z,14.25
2019-04-16T22:59:43.854Z,14.24
2019-04-16T23:01:48.137Z,14.19
2019-04-16T23:03:53.385Z,14.15
2019-04-16T23:06:00.968Z,14.10
2019-04-16T23:08:03.307Z,14.13
2019-04-16T23:10:07.230Z,14.13
2019-04-16T23:12:11.029Z,14.09
2019-04-16T23:14:14.819Z,14.01
2019-04-16T23:16:18.630Z,13.97
2019-04-16T23:18:23.459Z,13.95
2019-04-16T23:20:29.609Z,13.91
2019-04-16T23:22:33.886Z,13.83
2019-04-16T23:24:37.713Z,13.79
2019-04-16T23:26:41.436Z,13.76
2019-04-16T23:28:45.233Z,13.73
2019-04-16T23:30:51.305Z,13.70
2019-04-16T23:32:59.068Z,13.67
2019-04-16T23:35:00.115Z,13.61
2019-04-16T23:37:04.004Z,13.51
2019-04-16T23:39:08.159Z,13.45
2019-04-16T23:41:15.346Z,13.43
2019-04-16T23:43:34.004Z,13.43
2019-04-16T23:45:55.154Z,13.40
2019-04-16T23:48:06.010Z,13.34
2019-04-16T23:50:44.773Z,13.28
2019-04-16T23:52:49.572Z,13.21
2019-04-16T23:54:56.195Z,13.14
2019-04-16T23:57:06.598Z,13.07
2019-04-16T23:59:14.884Z,13.05
